createdAt,value
2017-08-22T00:00:53.894Z,15.20
2017-08-22T00:03:27.190Z,15.20
2017-08-22T00:05:54.737Z,15.20
2017-08-22T00:08:22.265Z,15.00
2017-08-22T00:10:49.809Z,15.00
2017-08-22T00:13:17.334Z,15.10
2017-08-22T00:15:44.874Z,15.00
2017-08-22T00:18:12.398Z,15.00
2017-08-22T00:20:39.950Z,15.00
2017-08-22T00:23:07.483Z,14.90
2017-08-22T00:25:35.034Z,14.80
2017-08-22T00:28:02.631Z,14.70
2017-08-22T00:30:30.179Z,14.80
2017-08-22T00:32:57.710Z,14.70
2017-08-22T00:35:25.259Z,14.70
2017-08-22T00:37:52.783Z,14.80
2017-08-22T00:40:20.328Z,15.00
2017-08-22T00:42:47.856Z,14.90
2017-08-22T00:45:15.398Z,14.80
2017-08-22T00:47:42.917Z,14.80
2017-08-22T00:50:10.471Z,14.90
2017-08-22T00:52:37.999Z,14.90
2017-08-22T00:55:05.522Z,14.90
2017-08-22T00:57:33.076Z,15.00
2017-08-22T01:00:00.607Z,15.00
2017-08-22T01:02:28.171Z,15.00
2017-08-22T01:04:55.709Z,15.00
2017-08-22T01:07:23.267Z,14.80
2017-08-22T01:09:50.801Z,14.80
2017-08-22T01:12:18.358Z,14.70
2017-08-22T01:14:45.883Z,14.70
2017-08-22T01:17:13.429Z,14.60
2017-08-22T01:19:40.958Z,14.50
2017-08-22T01:22:08.515Z,14.40
2017-08-22T01:24:36.048Z,14.40
2017-08-22T01:27:03.607Z,14.40
2017-08-22T01:29:31.131Z,14.50
2017-08-22T01:31:58.691Z,14.70
2017-08-22T01:34:26.223Z,14.80
2017-08-22T01:36:53.792Z,14.80
2017-08-22T01:39:21.326Z,14.70
2017-08-22T01:41:48.879Z,14.60
2017-08-22T01:44:16.414Z,14.70
2017-08-22T01:46:43.966Z,14.50
2017-08-22T01:49:11.487Z,14.50
2017-08-22T01:51:39.039Z,14.50
2017-08-22T01:54:06.566Z,14.40
2017-08-22T01:56:34.115Z,14.50
2017-08-22T01:59:01.641Z,14.70
2017-08-22T02:01:29.175Z,14.70
2017-08-22T02:03:56.723Z,14.70
2017-08-22T02:06:24.251Z,14.70
2017-08-22T02:08:51.794Z,14.50
2017-08-22T02:11:19.322Z,14.40
2017-08-22T02:13:46.873Z,14.40
2017-08-22T02:16:14.398Z,14.50
2017-08-22T02:18:41.947Z,14.40
2017-08-22T02:21:09.470Z,14.40
2017-08-22T02:23:37.015Z,14.40
2017-08-22T02:26:04.548Z,14.40
2017-08-22T02:28:32.095Z,14.40
2017-08-22T02:30:59.619Z,14.40
2017-08-22T02:33:27.170Z,14.40
2017-08-22T02:35:54.706Z,14.40
2017-08-22T02:38:22.261Z,14.40
2017-08-22T02:40:49.791Z,14.40
2017-08-22T02:43:17.343Z,14.40
2017-08-22T02:45:44.871Z,14.50
2017-08-22T02:48:12.421Z,14.40
2017-08-22T02:50:39.959Z,14.50
2017-08-22T02:53:07.528Z,14.60
2017-08-22T02:55:35.065Z,14.50
2017-08-22T02:58:02.589Z,14.50
2017-08-22T03:00:30.138Z,14.50
2017-08-22T03:02:57.658Z,14.50
2017-08-22T03:05:25.206Z,14.50
2017-08-22T03:07:52.740Z,14.50
2017-08-22T03:10:20.298Z,14.50
2017-08-22T03:12:47.822Z,14.50
2017-08-22T03:15:15.371Z,14.40
2017-08-22T03:17:42.894Z,14.50
2017-08-22T03:20:10.456Z,14.50
2017-08-22T03:22:37.979Z,14.50
2017-08-22T03:25:05.558Z,14.40
2017-08-22T03:27:33.090Z,14.30
2017-08-22T03:30:00.649Z,14.30
2017-08-22T03:32:28.174Z,14.30
2017-08-22T03:34:55.727Z,14.20
2017-08-22T03:37:23.260Z,14.20
2017-08-22T03:39:50.815Z,14.20
2017-08-22T03:42:18.349Z,14.20
2017-08-22T03:44:45.904Z,14.20
2017-08-22T03:47:13.434Z,14.20
2017-08-22T03:49:40.991Z,14.10
2017-08-22T03:52:08.517Z,14.10
2017-08-22T03:54:36.086Z,14.10
2017-08-22T03:57:03.617Z,14.10
2017-08-22T03:59:31.148Z,14.00
2017-08-22T04:01:58.690Z,14.00
2017-08-22T04:04:26.214Z,14.00
2017-08-22T04:06:53.762Z,14.00
2017-08-22T04:09:21.288Z,14.10
2017-08-22T04:11:48.831Z,14.20
2017-08-22T04:14:16.376Z,14.30
2017-08-22T04:16:43.936Z,14.30
2017-08-22T04:19:11.461Z,14.30
2017-08-22T04:21:39.012Z,14.20
2017-08-22T04:24:06.534Z,14.00
2017-08-22T04:26:34.087Z,14.10
2017-08-22T04:29:01.662Z,14.20
2017-08-22T04:31:30.430Z,14.10
2017-08-22T04:33:58.053Z,14.10
2017-08-22T04:36:25.600Z,14.20
2017-08-22T04:38:53.125Z,14.00
2017-08-22T04:41:21.267Z,13.90
2017-08-22T04:43:48.800Z,13.80
2017-08-22T04:46:16.352Z,13.70
2017-08-22T04:48:43.877Z,13.70
2017-08-22T04:51:11.421Z,13.80
2017-08-22T04:53:38.959Z,13.90
2017-08-22T04:56:06.527Z,13.90
2017-08-22T04:58:34.055Z,13.90
2017-08-22T05:01:01.599Z,13.90
2017-08-22T05:03:29.155Z,14.00
2017-08-22T05:05:56.689Z,14.00
2017-08-22T05:08:24.238Z,14.00
2017-08-22T05:10:51.765Z,14.00
2017-08-22T05:13:19.328Z,13.90
2017-08-22T05:15:46.870Z,13.90
2017-08-22T05:18:14.431Z,14.00
2017-08-22T05:20:41.964Z,14.00
2017-08-22T05:23:09.511Z,14.00
2017-08-22T05:25:37.034Z,14.10
2017-08-22T05:28:28.568Z,14.10
2017-08-22T05:30:56.095Z,14.10
2017-08-22T05:33:23.650Z,14.30
2017-08-22T05:35:51.182Z,14.40
2017-08-22T05:38:18.736Z,14.30
2017-08-22T05:40:46.258Z,14.30
2017-08-22T05:43:13.806Z,14.30
2017-08-22T05:45:41.336Z,14.30
2017-08-22T05:48:08.894Z,14.20
2017-08-22T05:50:36.423Z,14.10
2017-08-22T05:53:03.979Z,14.10
2017-08-22T05:55:31.510Z,14.10
2017-08-22T05:57:59.059Z,14.10
2017-08-22T06:00:26.587Z,14.00
2017-08-22T06:02:54.144Z,14.00
2017-08-22T06:05:22.830Z,14.00
2017-08-22T06:07:50.398Z,14.00
2017-08-22T06:10:17.917Z,14.00
2017-08-22T06:12:45.442Z,14.00
2017-08-22T06:15:12.995Z,14.00
2017-08-22T06:17:40.527Z,13.80
2017-08-22T06:20:08.079Z,13.80
2017-08-22T06:22:35.615Z,13.80
2017-08-22T06:25:03.176Z,13.80
2017-08-22T06:27:30.706Z,13.70
2017-08-22T06:29:58.250Z,13.80
2017-08-22T06:32:25.772Z,13.90
2017-08-22T06:34:53.319Z,13.90
2017-08-22T06:37:20.851Z,14.00
2017-08-22T06:39:48.417Z,14.00
2017-08-22T06:42:15.947Z,14.20
2017-08-22T06:44:43.491Z,14.30
2017-08-22T06:47:11.034Z,14.30
2017-08-22T06:49:38.587Z,14.30
2017-08-22T06:52:06.126Z,14.40
2017-08-22T06:54:33.711Z,14.60
2017-08-22T06:57:01.251Z,14.80
2017-08-22T06:59:28.806Z,14.90
2017-08-22T07:01:56.334Z,15.10
2017-08-22T07:04:23.878Z,15.30
2017-08-22T07:06:51.404Z,15.30
2017-08-22T07:09:19.718Z,15.50
2017-08-22T07:11:47.246Z,15.50
2017-08-22T07:14:14.766Z,15.60
2017-08-22T07:16:42.310Z,15.50
2017-08-22T07:19:09.890Z,15.50
2017-08-22T07:21:37.437Z,15.70
2017-08-22T07:24:04.962Z,15.90
2017-08-22T07:26:32.528Z,16.10
2017-08-22T07:29:00.055Z,16.20
2017-08-22T07:31:28.372Z,16.60
2017-08-22T07:33:55.907Z,16.60
2017-08-22T07:36:23.455Z,16.70
2017-08-22T07:38:50.978Z,16.80
2017-08-22T07:41:18.526Z,16.90
2017-08-22T07:43:46.046Z,17.00
2017-08-22T07:46:13.590Z,17.10
2017-08-22T07:48:41.120Z,17.10
2017-08-22T07:51:08.662Z,17.00
2017-08-22T07:53:36.191Z,17.20
2017-08-22T07:56:03.734Z,17.50
2017-08-22T07:58:31.315Z,17.70
2017-08-22T08:00:58.862Z,17.70
2017-08-22T08:03:26.386Z,17.70
2017-08-22T08:05:53.926Z,17.70
2017-08-22T08:08:21.446Z,17.80
2017-08-22T08:10:48.990Z,18.10
2017-08-22T08:13:16.528Z,18.30
2017-08-22T08:15:44.051Z,18.40
2017-08-22T08:18:11.602Z,18.50
2017-08-22T08:20:39.130Z,18.60
2017-08-22T08:23:06.682Z,18.80
2017-08-22T08:25:34.981Z,19.00
2017-08-22T08:28:02.530Z,18.90
2017-08-22T08:30:30.095Z,18.90
2017-08-22T08:32:57.641Z,19.00
2017-08-22T08:35:25.936Z,19.10
2017-08-22T08:37:53.511Z,19.00
2017-08-22T08:40:21.035Z,19.40
2017-08-22T08:42:48.577Z,19.60
2017-08-22T08:45:16.109Z,19.70
2017-08-22T08:47:43.678Z,19.60
2017-08-22T08:50:11.207Z,19.40
2017-08-22T08:52:38.756Z,19.40
2017-08-22T08:55:06.284Z,19.70
2017-08-22T08:57:33.834Z,19.80
2017-08-22T09:00:01.376Z,19.80
2017-08-22T09:02:28.955Z,20.10
2017-08-22T09:04:56.483Z,20.20
2017-08-22T09:07:24.024Z,19.80
2017-08-22T09:09:51.564Z,20.00
2017-08-22T09:12:19.114Z,20.10
2017-08-22T09:14:46.649Z,20.40
2017-08-22T09:17:14.178Z,20.50
2017-08-22T09:19:41.727Z,20.60
2017-08-22T09:22:09.255Z,20.50
2017-08-22T09:24:36.794Z,20.40
2017-08-22T09:27:04.318Z,20.50
2017-08-22T09:29:31.863Z,20.60
2017-08-22T09:31:59.386Z,20.70
2017-08-22T09:34:26.937Z,20.90
2017-08-22T09:36:54.458Z,20.90
2017-08-22T09:39:21.997Z,21.00
2017-08-22T09:41:49.523Z,21.20
2017-08-22T09:44:17.065Z,21.20
2017-08-22T09:46:44.586Z,21.20
2017-08-22T09:49:12.134Z,21.20
2017-08-22T09:51:39.658Z,21.10
2017-08-22T09:54:07.202Z,21.00
2017-08-22T09:56:36.718Z,21.10
2017-08-22T09:59:04.271Z,21.00
2017-08-22T10:01:32.028Z,21.10
2017-08-22T10:03:59.583Z,21.20
2017-08-22T10:06:27.101Z,21.40
2017-08-22T10:08:54.775Z,21.20
2017-08-22T10:11:22.324Z,21.00
2017-08-22T10:13:50.517Z,21.30
2017-08-22T10:16:18.489Z,21.20
2017-08-22T10:18:46.007Z,21.30
2017-08-22T10:21:13.546Z,21.40
2017-08-22T10:23:41.070Z,21.50
2017-08-22T10:26:08.620Z,21.50
2017-08-22T10:28:36.147Z,21.70
2017-08-22T10:31:03.695Z,21.60
2017-08-22T10:33:31.234Z,21.60
2017-08-22T10:35:58.785Z,21.70
2017-08-22T10:38:26.306Z,21.90
2017-08-22T10:40:53.851Z,21.90
2017-08-22T10:43:21.370Z,21.90
2017-08-22T10:45:48.918Z,21.80
2017-08-22T10:48:16.439Z,21.90
2017-08-22T10:50:43.999Z,21.90
2017-08-22T10:53:11.522Z,21.90
2017-08-22T10:55:39.066Z,21.90
2017-08-22T10:58:06.590Z,22.10
2017-08-22T11:00:34.139Z,22.10
2017-08-22T11:03:01.667Z,22.10
2017-08-22T11:05:29.215Z,22.10
2017-08-22T11:07:56.743Z,22.30
2017-08-22T11:10:24.262Z,22.10
2017-08-22T11:12:51.801Z,22.30
2017-08-22T11:15:19.323Z,22.20
2017-08-22T11:17:46.867Z,22.20
2017-08-22T11:20:14.385Z,22.20
2017-08-22T11:22:41.935Z,22.00
2017-08-22T11:25:09.466Z,22.00
2017-08-22T11:27:37.010Z,22.00
2017-08-22T11:30:04.533Z,21.90
2017-08-22T11:32:32.077Z,22.20
2017-08-22T11:34:59.603Z,22.20
2017-08-22T11:37:27.154Z,22.40
2017-08-22T11:39:54.681Z,22.40
2017-08-22T11:42:22.226Z,22.50
2017-08-22T11:44:49.753Z,22.40
2017-08-22T11:47:17.300Z,22.50
2017-08-22T11:49:44.822Z,22.40
2017-08-22T11:52:12.366Z,22.50
2017-08-22T11:54:39.892Z,22.80
2017-08-22T11:57:07.446Z,22.40
2017-08-22T11:59:34.979Z,22.60
2017-08-22T12:02:02.526Z,22.40
2017-08-22T12:04:30.049Z,22.60
2017-08-22T12:06:57.577Z,22.80
2017-08-22T12:09:25.121Z,23.00
2017-08-22T12:11:52.646Z,23.00
2017-08-22T12:14:20.190Z,23.00
2017-08-22T12:16:47.714Z,23.10
2017-08-22T12:19:15.259Z,22.80
2017-08-22T12:21:42.791Z,22.80
2017-08-22T12:24:10.332Z,23.10
2017-08-22T12:26:37.859Z,23.00
2017-08-22T12:29:05.423Z,23.10
2017-08-22T12:31:32.946Z,22.80
2017-08-22T12:34:00.493Z,23.10
2017-08-22T12:36:28.014Z,23.20
2017-08-22T12:38:55.561Z,23.00
2017-08-22T12:41:23.082Z,23.10
2017-08-22T12:43:50.627Z,22.90
2017-08-22T12:46:18.146Z,23.00
2017-08-22T12:48:45.686Z,23.20
2017-08-22T12:51:13.205Z,23.10
2017-08-22T12:53:40.754Z,23.10
2017-08-22T12:56:08.278Z,23.20
2017-08-22T12:58:35.831Z,23.10
2017-08-22T13:01:03.368Z,23.00
2017-08-22T13:03:30.915Z,22.80
2017-08-22T13:05:58.434Z,23.10
2017-08-22T13:08:25.980Z,23.20
2017-08-22T13:10:53.526Z,23.00
2017-08-22T13:13:21.051Z,23.30
2017-08-22T13:15:48.593Z,23.10
2017-08-22T13:18:16.110Z,23.10
2017-08-22T13:20:43.654Z,23.50
2017-08-22T13:23:11.179Z,23.10
2017-08-22T13:25:38.723Z,23.20
2017-08-22T13:28:06.248Z,23.20
2017-08-22T13:30:33.795Z,23.20
2017-08-22T13:33:01.319Z,23.50
2017-08-22T13:35:28.861Z,23.70
2017-08-22T13:37:56.383Z,23.80
2017-08-22T13:40:23.926Z,23.70
2017-08-22T13:42:51.450Z,23.40
2017-08-22T13:45:18.995Z,23.40
2017-08-22T13:47:46.520Z,23.50
2017-08-22T13:50:14.063Z,23.80
2017-08-22T13:52:41.587Z,23.50
2017-08-22T13:55:09.131Z,23.70
2017-08-22T13:57:36.651Z,23.50
2017-08-22T14:00:04.197Z,23.50
2017-08-22T14:02:31.728Z,23.50
2017-08-22T14:04:59.271Z,23.50
2017-08-22T14:07:26.790Z,23.20
2017-08-22T14:09:54.318Z,23.60
2017-08-22T14:12:21.867Z,23.60
2017-08-22T14:14:49.388Z,23.60
2017-08-22T14:17:16.935Z,23.90
2017-08-22T14:19:44.454Z,24.00
2017-08-22T14:22:11.999Z,23.90
2017-08-22T14:24:39.524Z,23.70
2017-08-22T14:27:07.076Z,23.60
2017-08-22T14:29:34.594Z,23.40
2017-08-22T14:32:02.143Z,23.70
2017-08-22T14:34:29.668Z,23.80
2017-08-22T14:36:57.214Z,23.80
2017-08-22T14:39:24.734Z,24.00
2017-08-22T14:41:52.286Z,24.00
2017-08-22T14:44:19.810Z,23.90
2017-08-22T14:46:47.349Z,24.00
2017-08-22T14:49:14.877Z,23.80
2017-08-22T14:51:42.418Z,23.50
2017-08-22T14:54:09.939Z,23.50
2017-08-22T14:56:37.488Z,23.70
2017-08-22T14:59:05.015Z,23.90
2017-08-22T15:01:32.558Z,23.60
2017-08-22T15:04:00.077Z,23.50
2017-08-22T15:06:27.618Z,23.70
2017-08-22T15:08:55.139Z,23.80
2017-08-22T15:11:22.703Z,23.80
2017-08-22T15:13:50.221Z,24.10
2017-08-22T15:16:17.757Z,24.00
2017-08-22T15:18:45.310Z,24.10
2017-08-22T15:21:12.838Z,24.00
2017-08-22T15:23:40.382Z,23.60
2017-08-22T15:26:07.905Z,23.30
2017-08-22T15:28:35.452Z,23.30
2017-08-22T15:31:02.977Z,23.50
2017-08-22T15:33:30.520Z,23.70
2017-08-22T15:35:58.052Z,23.80
2017-08-22T15:38:25.638Z,23.70
2017-08-22T15:40:53.166Z,23.60
2017-08-22T15:43:20.719Z,23.60
2017-08-22T15:45:48.251Z,23.50
2017-08-22T15:48:15.796Z,23.30
2017-08-22T15:50:43.322Z,23.50
2017-08-22T15:53:10.870Z,23.40
2017-08-22T15:55:38.399Z,23.40
2017-08-22T15:58:06.711Z,23.40
2017-08-22T16:00:34.239Z,23.30
2017-08-22T16:03:01.793Z,23.30
2017-08-22T16:05:29.312Z,23.20
2017-08-22T16:07:59.854Z,23.00
2017-08-22T16:10:27.374Z,23.00
2017-08-22T16:12:55.790Z,23.00
2017-08-22T16:15:23.310Z,23.00
2017-08-22T16:17:50.858Z,23.20
2017-08-22T16:20:18.408Z,23.40
2017-08-22T16:22:46.096Z,23.50
2017-08-22T16:25:13.639Z,23.50
2017-08-22T16:27:41.157Z,23.50
2017-08-22T16:30:08.698Z,23.40
2017-08-22T16:32:36.223Z,23.30
2017-08-22T16:35:03.770Z,23.40
2017-08-22T16:37:31.298Z,23.30
2017-08-22T16:39:58.842Z,23.20
2017-08-22T16:42:26.373Z,23.20
2017-08-22T16:44:53.922Z,23.10
2017-08-22T16:47:21.442Z,23.00
2017-08-22T16:49:48.991Z,22.80
2017-08-22T16:52:16.514Z,22.70
2017-08-22T16:54:44.067Z,22.50
2017-08-22T16:57:11.597Z,22.30
2017-08-22T16:59:39.146Z,22.10
2017-08-22T17:02:06.668Z,22.20
2017-08-22T17:04:34.211Z,22.70
2017-08-22T17:07:01.737Z,23.20
2017-08-22T17:09:29.295Z,23.40
2017-08-22T17:11:56.822Z,23.20
2017-08-22T17:14:24.378Z,23.30
2017-08-22T17:16:51.897Z,23.20
2017-08-22T17:19:19.422Z,23.10
2017-08-22T17:21:46.970Z,22.80
2017-08-22T17:24:14.495Z,22.40
2017-08-22T17:26:42.039Z,22.00
2017-08-22T17:29:09.567Z,21.60
2017-08-22T17:31:37.115Z,21.50
2017-08-22T17:34:04.643Z,21.30
2017-08-22T17:36:32.191Z,21.20
2017-08-22T17:38:59.716Z,21.10
2017-08-22T17:41:27.267Z,20.90
2017-08-22T17:43:54.788Z,20.80
2017-08-22T17:46:22.336Z,20.70
2017-08-22T17:48:49.856Z,20.70
2017-08-22T17:51:17.415Z,20.80
2017-08-22T17:53:44.938Z,20.70
2017-08-22T17:56:12.487Z,20.60
2017-08-22T17:58:40.014Z,20.60
2017-08-22T18:01:07.558Z,20.60
2017-08-22T18:03:35.074Z,20.60
2017-08-22T18:06:02.616Z,20.60
2017-08-22T18:08:30.139Z,20.60
2017-08-22T18:10:57.686Z,20.50
2017-08-22T18:13:25.215Z,20.40
2017-08-22T18:15:52.770Z,20.30
2017-08-22T18:18:20.290Z,20.10
2017-08-22T18:20:47.818Z,20.00
2017-08-22T18:23:15.374Z,19.80
2017-08-22T18:25:42.955Z,19.60
2017-08-22T18:28:10.513Z,19.40
2017-08-22T18:30:38.046Z,19.20
2017-08-22T18:33:05.622Z,19.10
2017-08-22T18:35:33.151Z,18.90
2017-08-22T18:38:00.701Z,18.80
2017-08-22T18:40:28.222Z,18.70
2017-08-22T18:42:56.544Z,18.40
2017-08-22T18:45:24.062Z,18.40
2017-08-22T18:47:51.606Z,18.40
2017-08-22T18:50:19.193Z,18.30
2017-08-22T18:52:46.751Z,18.20
2017-08-22T18:55:14.274Z,18.10
2017-08-22T18:57:41.831Z,18.10
2017-08-22T19:00:09.359Z,18.10
2017-08-22T19:02:36.906Z,17.90
2017-08-22T19:05:04.430Z,17.90
2017-08-22T19:07:32.737Z,17.80
2017-08-22T19:10:00.259Z,17.80
2017-08-22T19:12:28.576Z,17.60
2017-08-22T19:14:56.103Z,17.60
2017-08-22T19:17:23.652Z,17.60
2017-08-22T19:19:51.191Z,17.50
2017-08-22T19:22:18.759Z,17.40
2017-08-22T19:24:46.287Z,17.40
2017-08-22T19:27:13.807Z,17.40
2017-08-22T19:29:41.364Z,17.30
2017-08-22T19:32:08.899Z,17.30
2017-08-22T19:34:36.452Z,17.30
2017-08-22T19:37:03.979Z,17.20
2017-08-22T19:39:31.530Z,17.20
2017-08-22T19:41:59.063Z,17.10
2017-08-22T19:44:26.615Z,17.00
2017-08-22T19:46:54.156Z,17.00
2017-08-22T19:49:21.726Z,17.10
2017-08-22T19:51:49.253Z,17.00
2017-08-22T19:54:16.813Z,17.00
2017-08-22T19:56:44.333Z,17.00
2017-08-22T19:59:11.878Z,17.00
2017-08-22T20:01:39.402Z,16.90
2017-08-22T20:04:07.034Z,16.90
2017-08-22T20:06:34.581Z,16.90
2017-08-22T20:09:02.137Z,16.90
2017-08-22T20:11:29.651Z,16.90
2017-08-22T20:13:57.298Z,17.00
2017-08-22T20:16:24.825Z,17.00
2017-08-22T20:18:52.393Z,17.00
2017-08-22T20:21:19.914Z,17.00
2017-08-22T20:23:47.447Z,17.00
2017-08-22T20:26:15.004Z,16.90
2017-08-22T20:28:42.536Z,16.80
2017-08-22T20:31:10.082Z,16.70
2017-08-22T20:33:37.598Z,16.60
2017-08-22T20:36:05.151Z,16.50
2017-08-22T20:38:32.674Z,16.50
2017-08-22T20:41:00.222Z,16.50
2017-08-22T20:43:27.743Z,16.50
2017-08-22T20:45:55.284Z,16.60
2017-08-22T20:48:22.811Z,16.60
2017-08-22T20:50:50.370Z,16.50
2017-08-22T20:53:19.238Z,16.50
2017-08-22T20:55:46.909Z,16.50
2017-08-22T20:58:14.646Z,16.40
2017-08-22T21:00:42.198Z,16.50
2017-08-22T21:03:09.736Z,16.60
2017-08-22T21:05:37.326Z,16.50
2017-08-22T21:08:05.140Z,16.50
2017-08-22T21:10:32.737Z,16.40
2017-08-22T21:13:00.263Z,16.50
2017-08-22T21:15:27.807Z,16.50
2017-08-22T21:17:55.342Z,16.50
2017-08-22T21:20:22.892Z,16.40
2017-08-22T21:22:50.444Z,16.30
2017-08-22T21:25:17.998Z,16.40
2017-08-22T21:27:45.524Z,16.30
2017-08-22T21:30:13.075Z,16.20
2017-08-22T21:32:40.626Z,16.20
2017-08-22T21:35:08.154Z,16.20
2017-08-22T21:37:35.703Z,16.10
2017-08-22T21:40:03.500Z,16.10
2017-08-22T21:42:31.079Z,16.20
2017-08-22T21:44:58.612Z,16.20
2017-08-22T21:47:26.158Z,16.10
2017-08-22T21:49:53.687Z,16.10
2017-08-22T21:52:21.239Z,16.00
2017-08-22T21:54:48.762Z,16.00
2017-08-22T21:57:16.307Z,16.00
2017-08-22T21:59:43.831Z,16.00
2017-08-22T22:02:11.382Z,16.00
2017-08-22T22:04:38.912Z,15.90
2017-08-22T22:07:06.456Z,15.80
2017-08-22T22:09:33.981Z,15.80
2017-08-22T22:12:01.523Z,15.80
2017-08-22T22:14:29.042Z,15.90
2017-08-22T22:16:56.588Z,15.90
2017-08-22T22:19:24.114Z,15.90
2017-08-22T22:21:51.663Z,15.90
2017-08-22T22:24:19.182Z,15.90
2017-08-22T22:26:46.730Z,15.90
2017-08-22T22:29:14.263Z,15.90
2017-08-22T22:51:24.955Z,15.60
2017-08-22T22:53:52.504Z,15.70
2017-08-22T22:56:20.038Z,15.70
2017-08-22T22:58:47.587Z,15.80
2017-08-22T23:01:15.121Z,15.80
2017-08-22T23:03:42.667Z,15.80
2017-08-22T23:06:10.194Z,15.70
2017-08-22T23:08:37.739Z,15.70
2017-08-22T23:11:05.265Z,15.70
2017-08-22T23:13:32.823Z,15.70
2017-08-22T23:16:00.355Z,15.60
2017-08-22T23:18:27.913Z,15.60
2017-08-22T23:20:55.445Z,15.50
2017-08-22T23:23:23.018Z,15.40
2017-08-22T23:25:50.551Z,15.30
2017-08-22T23:28:18.112Z,15.10
2017-08-22T23:30:45.634Z,15.00
2017-08-22T23:33:13.185Z,15.00
2017-08-22T23:35:40.716Z,14.90
2017-08-22T23:38:08.275Z,15.00
2017-08-22T23:40:35.804Z,15.10
2017-08-22T23:43:03.349Z,15.20
2017-08-22T23:45:30.875Z,15.20
2017-08-22T23:47:58.423Z,15.10
2017-08-22T23:50:25.950Z,15.00
2017-08-22T23:52:53.510Z,15.10
2017-08-22T23:55:21.044Z,15.10
2017-08-22T23:57:49.054Z,15.10
